createdAt,value
2023-05-20T00:00:51.859Z,6.97
2023-05-20T00:03:18.521Z,6.89
2023-05-20T00:05:45.123Z,7.05
2023-05-20T00:08:11.912Z,6.77
2023-05-20T00:10:38.511Z,7.33
2023-05-20T00:13:05.150Z,6.93
2023-05-20T00:15:32.088Z,7.08
2023-05-20T00:17:58.966Z,6.57
2023-05-20T00:20:25.596Z,6.90
2023-05-20T00:22:52.205Z,6.95
2023-05-20T00:25:18.806Z,7.00
2023-05-20T00:27:45.422Z,7.35
2023-05-20T00:30:12.005Z,7.14
2023-05-20T00:32:38.655Z,7.21
2023-05-20T00:35:05.374Z,7.01
2023-05-20T00:37:31.975Z,7.04
2023-05-20T00:39:58.551Z,6.79
2023-05-20T00:42:25.128Z,7.23
2023-05-20T00:44:51.691Z,7.07
2023-05-20T00:47:18.293Z,7.45
2023-05-20T00:49:44.893Z,7.06
2023-05-20T00:52:11.491Z,7.15
2023-05-20T00:54:38.090Z,6.91
2023-05-20T00:57:04.702Z,7.12
2023-05-20T00:59:31.288Z,7.39
2023-05-20T01:01:57.865Z,7.41
2023-05-20T01:04:24.450Z,6.81
2023-05-20T01:06:51.026Z,6.68
2023-05-20T01:09:17.630Z,7.48
2023-05-20T01:11:44.208Z,7.40
2023-05-20T01:14:10.787Z,7.82
2023-05-20T01:16:37.419Z,7.12
2023-05-20T01:19:04.139Z,7.47
2023-05-20T01:21:30.797Z,7.04
2023-05-20T01:23:57.413Z,7.69
2023-05-20T01:26:24.047Z,7.38
2023-05-20T01:28:50.643Z,7.26
2023-05-20T01:31:17.294Z,7.22
2023-05-20T01:33:43.892Z,7.19
2023-05-20T01:36:10.465Z,7.74
2023-05-20T01:38:37.061Z,7.19
2023-05-20T01:41:03.649Z,7.45
2023-05-20T01:43:30.250Z,7.46
2023-05-20T01:45:56.840Z,7.21
2023-05-20T01:48:23.434Z,7.22
2023-05-20T01:50:50.037Z,6.93
2023-05-20T01:53:16.655Z,7.14
2023-05-20T01:55:43.282Z,7.61
2023-05-20T01:58:09.863Z,7.08
2023-05-20T02:00:36.446Z,7.09
2023-05-20T02:03:03.086Z,7.45
2023-05-20T02:05:29.745Z,7.09
2023-05-20T02:07:56.429Z,7.42
2023-05-20T02:10:22.995Z,7.50
2023-05-20T02:12:49.592Z,7.29
2023-05-20T02:15:16.204Z,7.22
2023-05-20T02:17:42.842Z,7.29
2023-05-20T02:20:09.439Z,7.40
2023-05-20T02:22:36.049Z,7.23
2023-05-20T02:25:02.672Z,7.29
2023-05-20T02:27:29.272Z,7.07
2023-05-20T02:29:55.871Z,7.46
2023-05-20T02:32:22.464Z,7.51
2023-05-20T02:34:49.051Z,7.06
2023-05-20T02:37:15.669Z,6.77
2023-05-20T02:39:42.242Z,6.90
2023-05-20T02:42:08.846Z,6.97
2023-05-20T02:44:35.451Z,7.03
2023-05-20T02:47:02.060Z,7.18
2023-05-20T02:49:28.659Z,7.23
2023-05-20T02:51:55.244Z,6.79
2023-05-20T02:54:21.830Z,7.25
2023-05-20T02:56:48.409Z,7.17
2023-05-20T02:59:15.061Z,7.05
2023-05-20T03:01:41.715Z,7.28
2023-05-20T03:04:08.315Z,6.93
2023-05-20T03:06:34.923Z,6.82
2023-05-20T03:09:01.513Z,7.48
2023-05-20T03:11:28.136Z,7.01
2023-05-20T03:13:54.720Z,7.21
2023-05-20T03:16:21.391Z,7.16
2023-05-20T03:18:48.047Z,6.94
2023-05-20T03:21:14.647Z,7.48
2023-05-20T03:23:41.248Z,7.40
2023-05-20T03:26:07.869Z,7.18
2023-05-20T03:28:34.449Z,7.06
2023-05-20T03:31:01.038Z,6.82
2023-05-20T03:33:27.652Z,7.04
2023-05-20T03:35:54.237Z,6.70
2023-05-20T03:38:20.976Z,6.94
2023-05-20T03:40:47.555Z,6.70
2023-05-20T03:43:14.129Z,6.82
2023-05-20T03:45:40.786Z,7.18
2023-05-20T03:48:07.456Z,7.02
2023-05-20T03:50:34.097Z,6.84
2023-05-20T03:53:00.676Z,7.11
2023-05-20T03:55:27.281Z,7.08
2023-05-20T03:57:54.056Z,7.10
2023-05-20T04:00:20.626Z,7.43
2023-05-20T04:02:47.251Z,7.22
2023-05-20T04:05:13.898Z,7.12
2023-05-20T04:07:40.539Z,6.68
2023-05-20T04:10:07.133Z,7.02
2023-05-20T04:12:33.750Z,7.05
2023-05-20T04:15:00.412Z,7.23
2023-05-20T04:17:27.021Z,6.99
2023-05-20T04:19:53.625Z,7.24
2023-05-20T04:22:20.203Z,7.30
2023-05-20T04:24:46.799Z,7.20
2023-05-20T04:27:13.374Z,7.15
2023-05-20T04:29:40.041Z,7.12
2023-05-20T04:32:06.749Z,6.98
2023-05-20T04:34:33.480Z,6.90
2023-05-20T04:37:00.076Z,7.13
2023-05-20T04:39:26.680Z,6.86
2023-05-20T04:41:53.282Z,7.28
2023-05-20T04:44:19.877Z,7.07
2023-05-20T04:46:46.468Z,6.86
2023-05-20T04:49:13.082Z,7.23
2023-05-20T04:51:39.652Z,7.00
2023-05-20T04:54:06.269Z,7.01
2023-05-20T04:56:32.847Z,7.12
2023-05-20T04:58:59.410Z,7.13
2023-05-20T05:01:26.054Z,7.03
2023-05-20T05:03:52.692Z,7.01
2023-05-20T05:06:19.285Z,6.76
2023-05-20T05:08:45.868Z,6.76
2023-05-20T05:11:15.262Z,6.42
2023-05-20T05:13:41.911Z,6.93
2023-05-20T05:16:08.562Z,6.96
2023-05-20T05:18:35.216Z,6.90
2023-05-20T05:21:01.843Z,6.55
2023-05-20T05:23:28.453Z,6.83
2023-05-20T05:25:55.046Z,6.83
2023-05-20T05:28:21.631Z,6.97
2023-05-20T05:30:48.245Z,6.69
2023-05-20T05:33:14.849Z,6.35
2023-05-20T05:35:41.463Z,6.24
2023-05-20T05:38:08.052Z,6.54
2023-05-20T05:40:34.647Z,6.56
2023-05-20T05:43:01.212Z,6.35
2023-05-20T05:45:27.792Z,6.48
2023-05-20T05:47:54.465Z,6.35
2023-05-20T05:50:21.161Z,6.53
2023-05-20T05:52:47.774Z,6.56
2023-05-20T05:55:14.348Z,6.49
2023-05-20T05:57:40.934Z,6.17
2023-05-20T06:00:07.518Z,6.37
2023-05-20T06:02:34.193Z,6.30
2023-05-20T06:05:00.927Z,6.42
2023-05-20T06:07:27.518Z,6.50
2023-05-20T06:09:54.100Z,6.59
2023-05-20T06:12:20.910Z,5.99
2023-05-20T06:14:47.540Z,6.38
2023-05-20T06:17:14.142Z,6.25
2023-05-20T06:19:40.845Z,6.34
2023-05-20T06:22:07.499Z,6.38
2023-05-20T06:24:34.071Z,6.48
2023-05-20T06:27:00.668Z,6.69
2023-05-20T06:29:27.240Z,6.48
2023-05-20T06:31:53.833Z,6.20
2023-05-20T06:34:20.443Z,6.37
2023-05-20T06:36:47.034Z,6.20
2023-05-20T06:39:13.608Z,5.93
2023-05-20T06:41:40.198Z,6.22
2023-05-20T06:44:06.772Z,6.33
2023-05-20T06:46:33.363Z,6.46
2023-05-20T06:48:59.990Z,6.30
2023-05-20T06:51:26.560Z,6.26
2023-05-20T06:53:53.155Z,6.23
2023-05-20T06:56:19.732Z,5.87
2023-05-20T06:58:46.311Z,5.91
2023-05-20T07:01:12.926Z,5.87
2023-05-20T07:03:39.552Z,6.05
2023-05-20T07:06:06.207Z,6.37
2023-05-20T07:08:32.828Z,6.20
2023-05-20T07:10:59.420Z,6.17
2023-05-20T07:13:26.105Z,6.31
2023-05-20T07:15:52.819Z,5.91
2023-05-20T07:18:19.523Z,5.84
2023-05-20T07:20:46.173Z,6.02
2023-05-20T07:23:14.502Z,5.87
2023-05-20T07:25:42.291Z,5.75
2023-05-20T07:28:08.892Z,5.75
2023-05-20T07:30:35.493Z,6.16
2023-05-20T07:33:02.157Z,6.05
2023-05-20T07:35:28.833Z,6.06
2023-05-20T07:37:55.456Z,5.90
2023-05-20T07:40:22.050Z,5.96
2023-05-20T07:42:48.645Z,5.89
2023-05-20T07:45:15.241Z,5.74
2023-05-20T07:47:41.867Z,5.90
2023-05-20T07:50:08.487Z,5.93
2023-05-20T07:52:44.121Z,5.86
2023-05-20T07:55:21.524Z,5.77
2023-05-20T07:57:48.133Z,5.73
2023-05-20T08:00:14.745Z,5.54
2023-05-20T08:02:41.372Z,5.56
2023-05-20T08:05:08.003Z,5.76
2023-05-20T08:07:34.572Z,5.56
2023-05-20T08:10:01.155Z,5.48
2023-05-20T08:12:27.744Z,5.92
2023-05-20T08:14:54.344Z,5.39
2023-05-20T08:17:21.024Z,5.53
2023-05-20T08:19:47.755Z,5.76
2023-05-20T08:22:14.353Z,5.84
2023-05-20T08:24:40.961Z,5.59
2023-05-20T08:27:07.575Z,5.63
2023-05-20T08:29:34.220Z,5.44
2023-05-20T08:32:00.820Z,5.44
2023-05-20T08:34:27.402Z,5.54
2023-05-20T08:36:53.996Z,5.51
2023-05-20T08:39:20.594Z,5.32
2023-05-20T08:41:47.183Z,5.36
2023-05-20T08:44:13.787Z,5.43
2023-05-20T08:46:40.469Z,5.03
2023-05-20T08:49:07.137Z,5.46
2023-05-20T08:51:33.734Z,5.25
2023-05-20T08:54:00.331Z,5.22
2023-05-20T08:56:28.648Z,5.49
2023-05-20T08:58:56.728Z,5.66
2023-05-20T09:01:23.365Z,5.64
2023-05-20T09:03:49.992Z,5.29
2023-05-20T09:06:16.584Z,5.42
2023-05-20T09:08:43.186Z,5.27
2023-05-20T09:11:09.777Z,5.56
2023-05-20T09:13:36.397Z,5.45
2023-05-20T09:16:03.130Z,5.03
2023-05-20T09:18:29.942Z,5.20
2023-05-20T09:20:56.527Z,4.86
2023-05-20T09:23:23.097Z,5.17
2023-05-20T09:25:49.691Z,5.37
2023-05-20T09:28:16.275Z,5.18
2023-05-20T09:30:45.203Z,5.53
2023-05-20T09:33:12.531Z,5.17
2023-05-20T09:35:39.141Z,5.58
2023-05-20T09:38:05.719Z,5.43
2023-05-20T09:40:32.279Z,5.25
2023-05-20T09:42:58.853Z,5.11
2023-05-20T09:45:25.432Z,5.23
2023-05-20T09:47:52.067Z,5.38
2023-05-20T09:50:18.696Z,5.57
2023-05-20T09:52:45.331Z,5.56
2023-05-20T09:55:11.942Z,5.51
2023-05-20T09:57:38.572Z,5.58
2023-05-20T10:00:05.148Z,5.79
2023-05-20T10:02:31.799Z,5.82
2023-05-20T10:04:58.415Z,5.61
2023-05-20T10:07:37.938Z,5.98
2023-05-20T10:10:08.215Z,6.35
2023-05-20T10:12:34.827Z,5.60
2023-05-20T10:15:01.402Z,5.74
2023-05-20T10:17:28.024Z,5.84
2023-05-20T10:19:54.657Z,5.81
2023-05-20T10:22:21.268Z,5.92
2023-05-20T10:24:47.861Z,5.93
2023-05-20T10:27:14.460Z,6.16
2023-05-20T10:29:41.075Z,5.81
2023-05-20T10:32:07.720Z,5.90
2023-05-20T10:34:34.361Z,5.93
2023-05-20T10:37:00.955Z,6.04
2023-05-20T10:39:27.529Z,6.00
2023-05-20T10:41:54.120Z,6.12
2023-05-20T10:44:20.727Z,6.46
2023-05-20T10:47:00.224Z,6.06
2023-05-20T10:49:33.875Z,6.34
2023-05-20T10:52:00.460Z,6.27
2023-05-20T10:54:27.158Z,6.68
2023-05-20T10:56:53.861Z,6.96
2023-05-20T10:59:20.506Z,7.17
2023-05-20T11:01:47.080Z,8.17
2023-05-20T11:04:13.797Z,8.46
2023-05-20T11:06:40.404Z,8.74
2023-05-20T11:09:07.003Z,9.46
2023-05-20T11:11:33.581Z,10.03
2023-05-20T11:14:00.182Z,10.90
2023-05-20T11:16:26.805Z,11.38
2023-05-20T11:18:53.532Z,12.76
2023-05-20T11:21:20.181Z,13.31
2023-05-20T11:23:46.787Z,14.40
2023-05-20T11:26:13.379Z,15.00
2023-05-20T11:28:39.957Z,14.99
2023-05-20T11:31:06.566Z,15.24
2023-05-20T11:33:33.195Z,14.80
2023-05-20T11:35:59.796Z,15.41
2023-05-20T11:38:26.377Z,18.87
2023-05-20T11:40:53.458Z,16.84
2023-05-20T11:43:20.447Z,16.22
2023-05-20T11:45:47.087Z,16.26
2023-05-20T11:48:13.784Z,17.16
2023-05-20T11:50:40.429Z,18.00
2023-05-20T11:53:07.037Z,18.04
2023-05-20T11:55:33.650Z,18.30
2023-05-20T11:58:00.254Z,19.27
2023-05-20T12:00:31.175Z,19.39
2023-05-20T12:03:00.395Z,20.46
2023-05-20T12:05:27.069Z,19.59
2023-05-20T12:07:54.449Z,19.23
2023-05-20T12:10:21.611Z,19.74
2023-05-20T12:12:48.263Z,20.67
2023-05-20T12:15:14.871Z,22.11
2023-05-20T12:17:41.522Z,20.51
2023-05-20T12:20:08.120Z,21.22
2023-05-20T12:22:34.832Z,21.10
2023-05-20T12:25:01.432Z,21.28
2023-05-20T12:27:28.048Z,21.43
2023-05-20T12:29:54.695Z,21.45
2023-05-20T12:32:21.355Z,21.81
2023-05-20T12:34:47.977Z,22.59
2023-05-20T12:37:14.592Z,22.20
2023-05-20T12:39:41.185Z,22.19
2023-05-20T12:42:07.799Z,21.43
2023-05-20T12:44:34.410Z,20.71
2023-05-20T12:47:01.150Z,20.26
2023-05-20T12:49:27.878Z,20.51
2023-05-20T12:51:54.461Z,20.33
2023-05-20T12:54:21.071Z,20.04
2023-05-20T12:56:47.674Z,20.36
2023-05-20T12:59:14.257Z,20.25
2023-05-20T13:01:40.908Z,19.61
2023-05-20T13:04:07.541Z,19.50
2023-05-20T13:06:34.138Z,19.58
2023-05-20T13:09:00.770Z,19.38
2023-05-20T13:11:27.401Z,19.49
2023-05-20T13:13:54.008Z,19.44
2023-05-20T13:16:20.627Z,19.28
2023-05-20T13:18:47.398Z,19.12
2023-05-20T13:21:14.054Z,18.74
2023-05-20T13:23:40.648Z,18.68
2023-05-20T13:26:07.263Z,18.62
2023-05-20T13:28:33.860Z,18.29
2023-05-20T13:31:00.496Z,18.61
2023-05-20T13:33:27.120Z,18.32
2023-05-20T13:35:53.703Z,18.62
2023-05-20T13:38:20.298Z,18.42
2023-05-20T13:40:46.903Z,18.07
2023-05-20T13:43:13.494Z,17.62
2023-05-20T13:45:40.087Z,17.22
2023-05-20T13:48:06.779Z,17.45
2023-05-20T13:50:33.451Z,17.16
2023-05-20T13:53:00.162Z,17.19
2023-05-20T13:55:26.757Z,16.83
2023-05-20T13:57:53.386Z,16.62
2023-05-20T14:00:19.992Z,15.94
2023-05-20T14:02:46.653Z,16.46
2023-05-20T14:05:13.287Z,15.41
2023-05-20T14:07:39.956Z,15.32
2023-05-20T14:10:06.530Z,15.28
2023-05-20T14:12:33.139Z,14.76
2023-05-20T14:14:59.752Z,15.12
2023-05-20T14:17:26.437Z,14.74
2023-05-20T14:19:53.091Z,14.40
2023-05-20T14:22:19.720Z,14.60
2023-05-20T14:24:46.315Z,14.90
2023-05-20T14:27:12.901Z,14.58
2023-05-20T14:29:39.478Z,14.47
2023-05-20T14:32:06.124Z,14.70
2023-05-20T14:34:32.753Z,14.42
2023-05-20T14:36:59.342Z,14.43
2023-05-20T14:39:25.952Z,14.20
2023-05-20T14:41:52.557Z,14.09
2023-05-20T14:44:19.141Z,14.36
2023-05-20T14:46:45.762Z,13.80
2023-05-20T14:49:12.418Z,14.07
2023-05-20T14:51:39.032Z,13.70
2023-05-20T14:54:05.636Z,14.00
2023-05-20T14:56:32.244Z,13.90
2023-05-20T14:58:58.847Z,13.77
2023-05-20T15:01:25.536Z,13.87
2023-05-20T15:03:52.191Z,13.53
2023-05-20T15:06:18.961Z,12.95
2023-05-20T15:08:45.567Z,13.41
2023-05-20T15:11:12.199Z,13.58
2023-05-20T15:13:40.406Z,13.16
2023-05-20T15:16:07.176Z,13.45
2023-05-20T15:18:33.772Z,13.05
2023-05-20T15:21:00.418Z,13.47
2023-05-20T15:23:26.992Z,12.67
2023-05-20T15:25:53.591Z,12.54
2023-05-20T15:28:20.190Z,12.89
2023-05-20T15:30:46.798Z,12.75
2023-05-20T15:33:13.438Z,12.90
2023-05-20T15:35:40.121Z,12.75
2023-05-20T15:38:06.724Z,12.23
2023-05-20T15:40:33.469Z,12.40
2023-05-20T15:43:00.201Z,12.41
2023-05-20T15:45:26.803Z,12.15
2023-05-20T15:47:53.443Z,12.83
2023-05-20T15:50:20.038Z,12.50
2023-05-20T15:52:46.721Z,12.47
2023-05-20T15:55:13.434Z,12.71
2023-05-20T15:57:40.042Z,12.62
2023-05-20T16:00:06.691Z,12.39
2023-05-20T16:02:36.063Z,12.18
2023-05-20T16:05:03.143Z,12.35
2023-05-20T16:07:29.763Z,12.63
2023-05-20T16:09:56.361Z,12.64
2023-05-20T16:12:22.964Z,12.33
2023-05-20T16:14:49.539Z,12.59
2023-05-20T16:17:16.120Z,12.66
2023-05-20T16:19:42.699Z,12.26
2023-05-20T16:22:09.284Z,12.58
2023-05-20T16:24:35.873Z,12.67
2023-05-20T16:27:02.469Z,12.57
2023-05-20T16:29:29.082Z,12.61
2023-05-20T16:31:55.756Z,12.74
2023-05-20T16:34:22.358Z,12.76
2023-05-20T16:36:48.982Z,12.73
2023-05-20T16:39:15.562Z,12.48
2023-05-20T16:41:42.147Z,12.35
2023-05-20T16:44:08.787Z,12.74
2023-05-20T16:46:35.466Z,12.37
2023-05-20T16:49:02.083Z,12.09
2023-05-20T16:51:28.703Z,12.69
2023-05-20T16:53:55.323Z,12.30
2023-05-20T16:56:21.934Z,11.91
2023-05-20T16:58:49.978Z,12.32
2023-05-20T17:01:18.741Z,12.22
2023-05-20T17:03:45.367Z,12.52
2023-05-20T17:06:11.976Z,12.38
2023-05-20T17:08:38.573Z,12.28
2023-05-20T17:11:05.167Z,12.20
2023-05-20T17:13:31.770Z,12.43
2023-05-20T17:15:58.364Z,12.31
2023-05-20T17:18:24.960Z,12.10
2023-05-20T17:20:51.543Z,11.74
2023-05-20T17:23:18.139Z,11.90
2023-05-20T17:25:44.719Z,11.72
2023-05-20T17:28:11.310Z,11.85
2023-05-20T17:30:37.900Z,11.56
2023-05-20T17:33:04.570Z,11.51
2023-05-20T17:35:31.224Z,11.55
2023-05-20T17:37:57.811Z,11.45
2023-05-20T17:40:24.411Z,11.60
2023-05-20T17:42:51.009Z,11.47
2023-05-20T17:45:17.610Z,11.38
2023-05-20T17:47:44.268Z,11.22
2023-05-20T17:50:10.941Z,11.45
2023-05-20T17:52:37.572Z,10.99
2023-05-20T17:55:04.166Z,11.40
2023-05-20T17:57:30.763Z,11.17
2023-05-20T17:59:57.337Z,11.68
2023-05-20T18:02:24.017Z,11.10
2023-05-20T18:04:50.779Z,11.56
2023-05-20T18:07:17.369Z,11.51
2023-05-20T18:09:43.979Z,11.68
2023-05-20T18:12:10.589Z,11.76
2023-05-20T18:14:37.188Z,11.69
2023-05-20T18:17:03.795Z,11.95
2023-05-20T18:19:30.478Z,11.70
2023-05-20T18:21:57.150Z,12.11
2023-05-20T18:24:23.747Z,12.68
2023-05-20T18:26:50.356Z,12.53
2023-05-20T18:29:17.007Z,12.86
2023-05-20T18:31:43.820Z,13.31
2023-05-20T18:34:10.459Z,12.98
2023-05-20T18:36:37.044Z,13.48
2023-05-20T18:39:03.632Z,13.32
2023-05-20T18:41:39.566Z,13.90
2023-05-20T18:44:13.024Z,14.43
2023-05-20T18:46:39.632Z,13.66
2023-05-20T18:49:06.213Z,13.58
2023-05-20T18:51:32.809Z,14.29
2023-05-20T18:53:59.417Z,13.91
2023-05-20T18:56:26.038Z,14.94
2023-05-20T18:58:52.649Z,14.40
2023-05-20T19:01:19.310Z,14.79
2023-05-20T19:03:45.964Z,14.71
2023-05-20T19:06:12.612Z,15.34
2023-05-20T19:08:39.315Z,15.18
2023-05-20T19:11:05.892Z,15.83
2023-05-20T19:13:32.484Z,15.94
2023-05-20T19:15:59.098Z,15.21
2023-05-20T19:18:25.716Z,15.55
2023-05-20T19:20:52.315Z,15.40
2023-05-20T19:23:18.916Z,15.49
2023-05-20T19:25:45.514Z,15.65
2023-05-20T19:28:12.117Z,15.75
2023-05-20T19:30:38.735Z,16.13
2023-05-20T19:33:05.409Z,15.80
2023-05-20T19:35:32.017Z,16.20
2023-05-20T19:37:58.610Z,15.77
2023-05-20T19:40:25.223Z,15.28
2023-05-20T19:42:52.458Z,16.01
2023-05-20T19:45:19.109Z,15.32
2023-05-20T19:47:45.736Z,15.51
2023-05-20T19:50:12.351Z,15.99
2023-05-20T19:52:38.945Z,16.31
2023-05-20T19:55:05.549Z,16.35
2023-05-20T19:57:32.124Z,15.89
2023-05-20T19:59:58.748Z,15.62
2023-05-20T20:02:25.418Z,15.85
2023-05-20T20:04:52.068Z,15.70
2023-05-20T20:07:18.667Z,15.71
2023-05-20T20:09:45.277Z,15.48
2023-05-20T20:12:11.884Z,15.72
2023-05-20T20:14:38.471Z,15.55
2023-05-20T20:17:05.084Z,15.31
2023-05-20T20:19:31.751Z,16.00
2023-05-20T20:21:58.433Z,15.59
2023-05-20T20:24:25.041Z,16.00
2023-05-20T20:26:51.623Z,15.24
2023-05-20T20:29:18.228Z,15.32
2023-05-20T20:31:44.847Z,15.87
2023-05-20T20:34:11.458Z,15.68
2023-05-20T20:36:38.173Z,15.02
2023-05-20T20:39:04.858Z,15.54
2023-05-20T20:41:31.497Z,16.46
2023-05-20T20:43:58.104Z,16.36
2023-05-20T20:46:24.744Z,15.88
2023-05-20T20:48:51.391Z,15.75
2023-05-20T20:51:17.988Z,15.99
2023-05-20T20:53:44.563Z,16.20
2023-05-20T20:56:11.160Z,15.66
2023-05-20T20:58:37.839Z,16.34
2023-05-20T21:01:04.454Z,16.34
2023-05-20T21:03:31.067Z,16.10
2023-05-20T21:05:57.649Z,16.52
2023-05-20T21:08:24.238Z,16.49
2023-05-20T21:10:50.964Z,15.84
2023-05-20T21:13:17.565Z,15.68
2023-05-20T21:15:44.158Z,16.29
2023-05-20T21:18:10.760Z,16.45
2023-05-20T21:20:37.377Z,15.88
2023-05-20T21:23:03.982Z,16.13
2023-05-20T21:25:30.571Z,16.48
2023-05-20T21:27:57.155Z,16.24
2023-05-20T21:30:23.755Z,16.28
2023-05-20T21:32:50.365Z,16.45
2023-05-20T21:35:17.003Z,16.30
2023-05-20T21:37:43.645Z,16.21
2023-05-20T21:40:10.244Z,16.23
2023-05-20T21:42:36.822Z,15.63
2023-05-20T21:45:03.416Z,15.93
2023-05-20T21:47:30.038Z,15.98
2023-05-20T21:49:56.646Z,15.88
2023-05-20T21:52:23.234Z,16.15
2023-05-20T21:54:49.843Z,16.21
2023-05-20T21:57:16.472Z,16.10
2023-05-20T21:59:43.055Z,15.77
2023-05-20T22:02:09.713Z,15.95
2023-05-20T22:04:36.352Z,15.67
2023-05-20T22:07:02.952Z,15.63
2023-05-20T22:09:29.546Z,15.65
2023-05-20T22:11:56.146Z,14.85
2023-05-20T22:14:22.748Z,15.34
2023-05-20T22:16:49.453Z,15.54
2023-05-20T22:19:16.182Z,15.71
2023-05-20T22:21:50.363Z,15.27
2023-05-20T22:24:17.898Z,15.09
2023-05-20T22:26:44.613Z,15.05
2023-05-20T22:29:11.191Z,14.97
2023-05-20T22:31:37.885Z,14.82
2023-05-20T22:34:04.620Z,15.03
2023-05-20T22:36:31.215Z,14.74
2023-05-20T22:38:57.830Z,15.06
2023-05-20T22:41:24.474Z,15.44
2023-05-20T22:43:51.059Z,14.66
2023-05-20T22:46:17.668Z,14.70
2023-05-20T22:48:44.237Z,14.96
2023-05-20T22:51:10.838Z,14.59
2023-05-20T22:53:37.428Z,14.94
2023-05-20T22:56:04.032Z,14.38
2023-05-20T22:58:30.630Z,15.23
2023-05-20T23:00:57.252Z,15.02
2023-05-20T23:03:23.878Z,14.72
2023-05-20T23:05:50.460Z,14.99
2023-05-20T23:08:17.082Z,14.25
2023-05-20T23:10:43.664Z,14.78
2023-05-20T23:13:10.280Z,14.41
2023-05-20T23:15:37.062Z,14.50
2023-05-20T23:18:03.922Z,14.46
2023-05-20T23:20:30.551Z,14.72
2023-05-20T23:22:57.464Z,14.36
2023-05-20T23:25:24.748Z,13.68
2023-05-20T23:27:51.372Z,14.14
2023-05-20T23:30:17.955Z,14.16
2023-05-20T23:32:44.602Z,14.18
2023-05-20T23:35:11.249Z,14.34
2023-05-20T23:37:37.854Z,14.54
2023-05-20T23:40:04.471Z,14.47
2023-05-20T23:42:31.088Z,14.14
2023-05-20T23:44:57.744Z,14.05
2023-05-20T23:47:24.336Z,14.05
2023-05-20T23:49:50.917Z,13.84
2023-05-20T23:52:17.508Z,13.65
2023-05-20T23:54:44.097Z,14.41
2023-05-20T23:57:10.716Z,14.16
2023-05-20T23:59:37.307Z,14.00
